Time;durP1;ratioP1;P1;durP2;ratioP2;P2;SDS_P1;SDS_P2;PMS_P1;PMS_P2;Temp;Humidity;BMP_temperature;BMP_pressure;BME280_temperature;BME280_humidity;BME280_pressure;Samples;Min_cycle;Max_cycle;Signal;HPM_P1;HPM_P2
2022/07/11 00:00:11;;;;;;;1.85;1.48;;;;;;;17.11;66.09;63772.16;5087360;28;20228;-78
2022/07/11 00:02:39;;;;;;;1.52;1.42;;;;;;;16.98;66.38;63756.03;5086571;28;20199;-77
2022/07/11 00:05:08;;;;;;;2.10;1.30;;;;;;;17.07;66.66;63762.31;5086733;28;20196;-77
2022/07/11 00:07:35;;;;;;;1.38;1.27;;;;;;;16.94;67.43;63751.88;5087115;28;20196;-78
2022/07/11 00:10:02;;;;;;;1.23;1.23;;;;;;;16.87;68.16;63742.03;5087307;28;20197;-77
2022/07/11 00:12:30;;;;;;;1.00;1.00;;;;;;;16.86;68.20;63745.59;5085321;28;20222;-77
2022/07/11 00:14:58;;;;;;;1.33;1.33;;;;;;;16.71;69.59;63724.84;5069617;28;20262;-77
2022/07/11 00:17:25;;;;;;;1.70;1.40;;;;;;;16.76;69.67;63727.47;5074224;28;20449;-77
2022/07/11 00:19:52;;;;;;;4.63;1.38;;;;;;;16.71;70.32;63722.78;5089333;28;20254;-77
2022/07/11 00:22:20;;;;;;;2.70;1.77;;;;;;;16.69;70.39;63725.84;5086883;28;20216;-78
2022/07/11 00:24:47;;;;;;;1.98;1.88;;;;;;;16.58;71.89;63716.47;5067205;28;20216;-77
2022/07/11 00:27:14;;;;;;;1.60;1.45;;;;;;;16.64;71.73;63723.22;5067446;28;20224;-78
2022/07/11 00:29:41;;;;;;;1.50;1.50;;;;;;;16.52;72.51;63708.16;5068651;28;20544;-77
2022/07/11 00:32:08;;;;;;;1.42;1.42;;;;;;;16.60;72.46;63715.97;5084560;28;20242;-78
2022/07/11 00:34:36;;;;;;;1.33;1.30;;;;;;;16.51;73.15;63706.59;5087956;28;20188;-78
2022/07/11 00:37:02;;;;;;;1.20;1.20;;;;;;;16.56;73.05;63709.75;5085632;28;20279;-77
2022/07/11 00:39:31;;;;;;;1.70;1.60;;;;;;;16.53;73.59;63709.19;5086105;28;20235;-77
2022/07/11 00:41:58;;;;;;;1.30;1.30;;;;;;;16.51;73.98;63701.47;5087068;28;20473;-77
2022/07/11 00:44:24;;;;;;;3.97;1.67;;;;;;;16.51;74.44;63707.13;5087097;28;20488;-78
2022/07/11 00:46:51;;;;;;;1.75;1.65;;;;;;;16.55;73.79;63706.13;5085860;28;20259;-77
2022/07/11 00:49:19;;;;;;;1.77;1.67;;;;;;;16.59;73.80;63714.94;5088837;28;20362;-77
2022/07/11 00:51:46;;;;;;;2.92;1.58;;;;;;;16.48;74.24;63703.50;5083375;28;20248;-77
2022/07/11 00:54:15;;;;;;;1.30;1.30;;;;;;;16.45;73.93;63698.28;5069213;28;20529;-76
2022/07/11 00:56:43;;;;;;;2.70;1.73;;;;;;;16.46;74.30;63706.53;5086622;28;20288;-77
2022/07/11 00:59:10;;;;;;;2.10;1.58;;;;;;;16.39;74.11;63692.06;5088714;28;20247;-76
2022/07/11 01:01:38;;;;;;;1.27;1.20;;;;;;;16.42;73.51;63702.38;5088482;28;20290;-77
2022/07/11 01:04:05;;;;;;;2.13;1.48;;;;;;;16.34;73.34;63683.78;5088297;28;20452;-77
2022/07/11 01:06:32;;;;;;;4.00;1.00;;;;;;;16.39;72.97;63689.50;5086725;28;20417;-77
2022/07/11 01:08:59;;;;;;;2.15;1.33;;;;;;;16.35;72.92;63690.47;5086210;28;20208;-77
2022/07/11 01:11:27;;;;;;;2.22;1.27;;;;;;;16.28;72.51;63682.66;5085013;28;20309;-77
2022/07/11 01:13:56;;;;;;;4.97;1.30;;;;;;;16.32;71.60;63682.22;5085143;28;20200;-77
2022/07/11 01:16:23;;;;;;;0.90;0.90;;;;;;;16.34;70.46;63681.19;5085358;28;20291;-77
2022/07/11 01:18:52;;;;;;;1.23;1.13;;;;;;;16.37;69.63;63694.59;5086113;28;20238;-78
2022/07/11 01:21:23;;;;;;;2.35;1.38;;;;;;;16.33;69.40;63685.81;5085165;28;20219;-78
2022/07/11 01:23:52;;;;;;;3.58;1.38;;;;;;;16.36;69.70;63691.50;5089256;28;20336;-77
2022/07/11 01:26:21;;;;;;;1.20;1.20;;;;;;;16.40;69.01;63695.13;5095546;28;20212;-77
2022/07/11 01:28:48;;;;;;;1.45;1.35;;;;;;;16.38;69.19;63690.47;5086556;28;20439;-78
2022/07/11 01:31:16;;;;;;;1.30;1.10;;;;;;;16.38;68.71;63691.00;5087933;28;20216;-78
2022/07/11 01:33:43;;;;;;;1.30;1.27;;;;;;;16.27;68.27;63681.63;5085001;28;20251;-77
2022/07/11 01:36:10;;;;;;;1.33;1.27;;;;;;;16.31;68.41;63680.66;5085292;28;20591;-77
2022/07/11 01:38:37;;;;;;;2.28;1.33;;;;;;;16.30;68.09;63685.25;5085874;28;20200;-78
2022/07/11 01:41:06;;;;;;;1.20;1.20;;;;;;;16.28;68.31;63678.03;5085819;28;20223;-77
2022/07/11 01:43:33;;;;;;;1.00;1.00;;;;;;;16.23;69.13;63680.03;5083616;28;20442;-77
2022/07/11 01:46:00;;;;;;;1.20;1.17;;;;;;;16.13;70.29;63665.53;5085569;28;20261;-77
2022/07/11 01:48:28;;;;;;;1.10;1.10;;;;;;;16.17;70.17;63672.25;5085678;28;20204;-77
2022/07/11 01:50:55;;;;;;;1.23;1.23;;;;;;;16.14;70.19;63666.03;5083242;28;20228;-78
2022/07/11 01:53:22;;;;;;;1.00;1.00;;;;;;;16.14;70.24;63666.03;5084314;28;20433;-77
2022/07/11 01:55:49;;;;;;;1.10;1.10;;;;;;;16.09;70.60;63663.94;5085590;28;20226;-77
2022/07/11 01:58:18;;;;;;;0.98;0.90;;;;;;;16.11;70.46;63663.47;5088685;28;20414;-76
2022/07/11 02:00:45;;;;;;;1.25;1.23;;;;;;;15.99;71.56;63653.03;5087335;28;20345;-77
2022/07/11 02:03:11;;;;;;;1.10;1.10;;;;;;;15.97;72.00;63653.50;5084691;28;20204;-77
2022/07/11 02:05:39;;;;;;;3.55;1.27;;;;;;;16.03;71.82;63654.63;5085526;28;20238;-78
2022/07/11 02:08:13;;;;;;;1.30;1.30;;;;;;;15.95;71.89;63654.00;5084940;28;20196;-77
2022/07/11 02:10:42;;;;;;;1.00;1.00;;;;;;;15.89;72.25;63643.13;5070601;28;20235;-76
2022/07/11 02:13:10;;;;;;;1.60;1.08;;;;;;;15.86;72.29;63640.00;5064005;28;20201;-77
2022/07/11 02:15:39;;;;;;;1.33;1.20;;;;;;;15.91;71.66;63644.72;5081762;28;20266;-77
2022/07/11 02:18:07;;;;;;;2.65;0.98;;;;;;;15.84;71.86;63634.88;5085359;28;20193;-77
2022/07/11 02:20:35;;;;;;;4.30;1.15;;;;;;;15.83;71.95;63636.38;5084363;28;20228;-77
2022/07/11 02:23:03;;;;;;;0.90;0.90;;;;;;;15.83;72.23;63634.34;5086025;28;20211;-77
2022/07/11 02:25:30;;;;;;;2.97;1.30;;;;;;;15.80;72.37;63630.69;5087191;28;20223;-76
2022/07/11 02:27:57;;;;;;;3.80;1.40;;;;;;;15.77;72.66;63625.53;5092275;28;20205;-76
2022/07/11 02:30:24;;;;;;;1.00;1.00;;;;;;;15.75;73.58;63625.50;5084524;28;20200;-77
2022/07/11 02:32:53;;;;;;;1.38;1.27;;;;;;;15.77;73.82;63625.00;5086234;28;20208;-77
2022/07/11 02:35:21;;;;;;;0.98;0.98;;;;;;;15.78;73.89;63626.56;5090489;28;20205;-76
2022/07/11 02:37:48;;;;;;;1.48;1.38;;;;;;;15.76;73.87;63629.09;5079282;28;20226;-77
2022/07/11 02:40:16;;;;;;;2.30;1.70;;;;;;;15.73;74.19;63623.94;5085133;28;20228;-77
2022/07/11 02:42:43;;;;;;;0.95;0.90;;;;;;;15.54;73.78;63606.22;5084446;28;20230;-77
2022/07/11 02:45:10;;;;;;;2.17;1.17;;;;;;;15.69;73.64;63619.25;5083013;28;20208;-76
2022/07/11 02:47:39;;;;;;;2.17;1.33;;;;;;;15.68;73.04;63620.78;5082090;28;20203;-77
2022/07/11 02:50:11;;;;;;;1.38;1.38;;;;;;;15.68;72.62;63620.78;5083489;28;20224;-76
2022/07/11 02:52:38;;;;;;;1.15;1.08;;;;;;;15.71;72.83;63621.34;5084373;28;20204;-76
2022/07/11 02:55:07;;;;;;;0.93;0.93;;;;;;;15.59;73.02;63611.44;5079547;28;20204;-77
2022/07/11 02:57:34;;;;;;;2.20;1.00;;;;;;;15.68;72.17;63620.78;5080432;28;20219;-77
2022/07/11 03:00:01;;;;;;;2.85;1.23;;;;;;;15.64;71.99;63614.59;5083032;28;20223;-77
2022/07/11 03:02:28;;;;;;;2.10;1.20;;;;;;;15.68;71.66;63623.34;5083988;28;20208;-77
2022/07/11 03:04:55;;;;;;;1.20;1.10;;;;;;;15.65;71.18;63620.75;5083849;28;20403;-77
2022/07/11 03:07:23;;;;;;;1.05;1.05;;;;;;;15.66;70.93;63613.56;5080516;28;20525;-76
2022/07/11 03:09:50;;;;;;;3.30;1.17;;;;;;;15.71;70.50;63621.34;5064806;28;20244;-76
2022/07/11 03:12:17;;;;;;;1.40;1.30;;;;;;;15.74;70.23;63629.59;5064690;28;20400;-76
2022/07/11 03:14:44;;;;;;;1.08;1.08;;;;;;;15.81;70.28;63636.88;5082174;28;20227;-77
2022/07/11 03:17:11;;;;;;;1.08;1.08;;;;;;;15.73;69.74;63623.41;5083186;28;20239;-76
2022/07/11 03:19:38;;;;;;;3.72;1.05;;;;;;;15.78;69.12;63631.19;5083180;28;20262;-77
2022/07/11 03:22:05;;;;;;;1.38;1.27;;;;;;;15.79;68.84;63634.81;5084266;28;20223;-77
2022/07/11 03:24:34;;;;;;;0.93;0.93;;;;;;;15.87;68.83;63635.41;5084049;28;20200;-78
2022/07/11 03:27:01;;;;;;;1.25;1.20;;;;;;;15.92;68.44;63645.75;5083180;28;20221;-77
2022/07/11 03:29:27;;;;;;;1.20;1.20;;;;;;;15.87;68.17;63632.84;5085179;28;20219;-77
2022/07/11 03:31:54;;;;;;;1.95;1.00;;;;;;;16.04;68.28;63653.59;5082914;28;20220;-79
2022/07/11 03:34:21;;;;;;;1.30;1.20;;;;;;;15.97;68.79;63648.38;5084257;28;20263;-77
2022/07/11 03:36:48;;;;;;;1.00;1.00;;;;;;;16.07;67.87;63661.88;5083579;28;20227;-77
2022/07/11 03:39:15;;;;;;;2.88;1.52;;;;;;;16.04;67.92;63655.66;5084289;28;20219;-77
2022/07/11 03:41:44;;;;;;;1.85;1.20;;;;;;;16.09;68.13;63660.84;5083452;28;20281;-76
2022/07/11 03:44:11;;;;;;;1.13;1.13;;;;;;;16.09;66.98;63658.28;5087188;28;20401;-77
2022/07/11 03:46:38;;;;;;;3.28;1.15;;;;;;;16.16;67.70;63671.22;5088585;28;20370;-77
2022/07/11 03:49:05;;;;;;;1.23;1.23;;;;;;;16.21;67.54;63673.31;5087846;28;20230;-77
2022/07/11 03:51:32;;;;;;;2.17;0.93;;;;;;;16.32;66.76;63686.81;5084847;28;20246;-78
2022/07/11 03:54:00;;;;;;;1.05;1.05;;;;;;;16.26;67.09;63678.53;5083944;28;20196;-76
2022/07/11 03:56:27;;;;;;;1.50;1.40;;;;;;;16.37;67.16;63694.59;5083747;28;20224;-77
2022/07/11 03:58:55;;;;;;;1.50;1.20;;;;;;;16.31;68.46;63683.72;5083118;28;20263;-77
2022/07/11 04:01:22;;;;;;;1.20;1.20;;;;;;;16.43;67.64;63693.63;5082596;28;20297;-77
2022/07/11 04:03:49;;;;;;;1.35;1.25;;;;;;;16.47;66.85;63700.41;5083968;28;20220;-77
2022/07/11 04:06:16;;;;;;;2.05;1.17;;;;;;;16.41;68.57;63693.63;5082943;28;20216;-76
2022/07/11 04:08:43;;;;;;;1.45;1.20;;;;;;;16.52;67.62;63703.03;5083155;28;20206;-77
2022/07/11 04:11:10;;;;;;;2.30;1.52;;;;;;;16.60;67.18;63711.34;5084202;28;20305;-78
2022/07/11 04:13:37;;;;;;;0.93;0.93;;;;;;;16.54;69.38;63707.69;5081962;28;20197;-76
2022/07/11 04:16:06;;;;;;;1.48;1.40;;;;;;;16.45;71.27;63695.72;5085326;28;20579;-76
2022/07/11 04:18:34;;;;;;;1.58;1.48;;;;;;;16.20;73.14;63672.81;5083850;28;20197;-76
2022/07/11 04:21:01;;;;;;;1.25;1.25;;;;;;;16.12;74.37;63666.53;5086188;28;20256;-77
2022/07/11 04:23:27;;;;;;;5.07;1.67;;;;;;;16.32;74.23;63686.81;5087984;28;20196;-77
2022/07/11 04:25:55;;;;;;;1.45;1.45;;;;;;;16.35;73.59;63687.38;5088077;28;20497;-78
2022/07/11 04:28:22;;;;;;;1.75;1.73;;;;;;;16.46;72.60;63696.25;5084385;28;20218;-77
2022/07/11 04:30:48;;;;;;;1.52;1.48;;;;;;;16.45;72.72;63697.75;5084296;28;20304;-77
2022/07/11 04:33:17;;;;;;;1.77;1.60;;;;;;;16.42;72.65;63697.75;5084194;28;20200;-78
2022/07/11 04:35:44;;;;;;;2.60;1.45;;;;;;;16.48;70.53;63701.44;5084125;28;20228;-77
2022/07/11 04:38:11;;;;;;;1.60;1.52;;;;;;;16.54;70.15;63710.25;5085713;28;20193;-77
2022/07/11 04:40:38;;;;;;;1.38;1.27;;;;;;;16.58;70.31;63708.75;5086461;28;20461;-76
2022/07/11 04:43:05;;;;;;;2.33;1.48;;;;;;;16.59;69.75;63712.34;5086463;28;20196;-77
2022/07/11 04:45:32;;;;;;;1.50;1.50;;;;;;;16.55;70.18;63713.84;5085939;28;20234;-77
2022/07/11 04:48:01;;;;;;;1.60;1.45;;;;;;;16.65;69.98;63721.69;5086304;28;20200;-76
2022/07/11 04:50:29;;;;;;;1.58;1.20;;;;;;;16.66;69.30;63725.31;5086291;28;20227;-76
2022/07/11 04:52:56;;;;;;;2.78;1.67;;;;;;;16.74;70.16;63730.56;5088641;28;20415;-77
2022/07/11 04:55:23;;;;;;;3.97;1.02;;;;;;;16.73;70.02;63732.06;5088901;28;20264;-76
2022/07/11 04:57:50;;;;;;;1.90;1.80;;;;;;;16.86;68.56;63743.03;5086577;28;20211;-77
2022/07/11 05:00:18;;;;;;;2.22;1.88;;;;;;;16.74;69.59;63725.41;5087800;28;20250;-77
2022/07/11 05:02:44;;;;;;;1.40;1.40;;;;;;;16.86;68.55;63746.13;5084413;28;20205;-76
2022/07/11 05:05:12;;;;;;;1.48;1.48;;;;;;;16.89;69.11;63741.00;5084965;28;20223;-77
2022/07/11 05:07:40;;;;;;;1.63;1.52;;;;;;;16.91;68.99;63748.25;5085408;28;20501;-77
2022/07/11 05:10:08;;;;;;;1.52;1.42;;;;;;;16.94;68.25;63749.31;5086585;28;20342;-77
2022/07/11 05:12:35;;;;;;;1.38;1.35;;;;;;;17.03;66.76;63758.16;5086483;28;20258;-77
2022/07/11 05:15:02;;;;;;;4.97;1.42;;;;;;;17.08;66.68;63765.94;5087307;28;20212;-77
2022/07/11 05:17:29;;;;;;;1.55;1.45;;;;;;;16.86;68.40;63745.59;5087818;28;20219;-80
2022/07/11 05:19:56;;;;;;;1.75;1.65;;;;;;;16.99;67.62;63756.56;5089950;28;20204;-78
2022/07/11 05:22:23;;;;;;;1.50;1.40;;;;;;;17.04;63.70;63761.75;5089903;28;20290;-79
2022/07/11 05:24:53;;;;;;;1.70;1.40;;;;;;;16.93;64.98;63750.84;5101175;28;20205;-76
2022/07/11 05:27:21;;;;;;;2.15;1.55;;;;;;;16.93;63.15;63750.31;5118218;28;20214;-77
2022/07/11 05:29:48;;;;;;;1.77;1.67;;;;;;;17.01;63.62;63758.66;5094750;28;20196;-77
2022/07/11 05:32:15;;;;;;;1.65;1.65;;;;;;;17.15;60.59;63765.50;5091378;28;20223;-78
2022/07/11 05:34:42;;;;;;;3.45;1.30;;;;;;;17.11;58.89;63767.00;5089248;28;20196;-77
2022/07/11 05:37:08;;;;;;;1.60;1.50;;;;;;;17.29;59.64;63783.16;5087597;28;20540;-78
2022/07/11 05:39:35;;;;;;;2.15;1.10;;;;;;;17.39;56.73;63795.63;5086015;28;20259;-78
2022/07/11 05:42:04;;;;;;;1.75;1.40;;;;;;;17.28;55.92;63784.69;5086566;28;20239;-79
2022/07/11 05:44:31;;;;;;;5.28;1.45;;;;;;;17.33;55.00;63779.06;5087162;28;20192;-78
2022/07/11 05:47:02;;;;;;;1.08;1.08;;;;;;;17.32;54.53;63786.28;5086519;28;20216;-79
2022/07/11 05:49:28;;;;;;;1.73;1.20;;;;;;;17.63;52.83;63820.13;5086682;28;20197;-78
2022/07/11 05:51:55;;;;;;;1.23;1.13;;;;;;;17.59;53.57;63816.47;5087894;28;20236;-79
2022/07/11 05:54:22;;;;;;;3.22;1.42;;;;;;;17.42;54.95;63798.75;5084635;28;20394;-76
2022/07/11 05:56:49;;;;;;;2.35;1.35;;;;;;;17.55;54.48;63811.78;5085931;28;20224;-78
2022/07/11 05:59:17;;;;;;;1.40;1.30;;;;;;;17.03;56.06;63758.16;5083250;28;20208;-76
2022/07/11 06:01:44;;;;;;;1.30;1.30;;;;;;;17.21;57.28;63779.97;5083951;28;20256;-76
2022/07/11 06:04:12;;;;;;;2.63;1.50;;;;;;;17.51;57.67;63807.63;5087843;28;20466;-76
2022/07/11 06:06:39;;;;;;;1.58;1.48;;;;;;;17.27;55.44;63783.66;5087836;28;20220;-76
2022/07/11 06:09:05;;;;;;;1.85;1.58;;;;;;;17.40;54.96;63794.09;5085155;28;20196;-78
2022/07/11 06:11:32;;;;;;;1.50;1.50;;;;;;;17.44;55.14;63800.31;5085670;28;20251;-78
2022/07/11 06:13:59;;;;;;;1.40;1.30;;;;;;;17.59;55.54;63815.94;5068275;28;20196;-76
2022/07/11 06:16:28;;;;;;;1.85;1.17;;;;;;;17.68;55.77;63825.84;5065580;28;20209;-77
2022/07/11 06:18:55;;;;;;;1.90;1.30;;;;;;;17.52;55.73;63811.22;5082004;28;20199;-80
2022/07/11 06:21:21;;;;;;;2.35;1.40;;;;;;;17.58;56.09;63818.00;5084631;28;20239;-80
2022/07/11 06:23:49;;;;;;;5.63;1.33;;;;;;;17.79;55.41;63836.78;5085677;28;20359;-76
2022/07/11 06:26:16;;;;;;;1.83;1.33;;;;;;;17.82;55.90;63845.06;5084874;28;20422;-75
2022/07/11 06:28:44;;;;;;;3.15;1.35;;;;;;;17.92;55.32;63850.84;5082175;28;20505;-76
2022/07/11 06:31:11;;;;;;;2.67;1.45;;;;;;;18.06;54.65;63868.00;5086242;28;20265;-79
2022/07/11 06:33:40;;;;;;;3.13;1.40;;;;;;;18.04;53.93;63865.38;5087368;28;20373;-77
2022/07/11 06:36:07;;;;;;;1.80;0.90;;;;;;;18.00;52.01;63864.31;5084983;28;20226;-78
2022/07/11 06:38:35;;;;;;;0.80;0.80;;;;;;;18.13;50.58;63877.34;5086920;28;20393;-78
2022/07/11 06:41:02;;;;;;;1.75;1.00;;;;;;;18.06;48.88;63862.84;5086262;28;20290;-77
2022/07/11 06:43:30;;;;;;;4.00;0.98;;;;;;;17.96;48.47;63854.47;5088301;28;20204;-78
2022/07/11 06:45:58;;;;;;;0.77;0.70;;;;;;;18.01;48.61;63864.84;5085594;28;20244;-78
2022/07/11 06:48:25;;;;;;;0.75;0.75;;;;;;;17.57;48.22;63813.88;5085604;28;20207;-76
2022/07/11 06:50:54;;;;;;;0.70;0.70;;;;;;;17.93;48.01;63854.44;5076350;28;20228;-76
2022/07/11 06:53:21;;;;;;;0.50;0.50;;;;;;;17.78;46.54;63836.25;5086110;28;20226;-76
2022/07/11 06:55:48;;;;;;;1.38;0.60;;;;;;;17.69;47.13;63829.44;5084836;28;20254;-76
2022/07/11 06:58:31;;;;;;;2.55;0.80;;;;;;;17.78;47.97;63838.31;5086145;28;20203;-76
2022/07/11 07:00:59;;;;;;;0.82;0.82;;;;;;;17.99;46.81;63858.13;5086196;28;20235;-78
2022/07/11 07:03:27;;;;;;;0.60;0.60;;;;;;;18.00;46.79;63861.75;5086426;28;20200;-76
2022/07/11 07:05:56;;;;;;;2.22;1.17;;;;;;;17.89;46.96;63849.75;5085075;28;20248;-78
2022/07/11 07:08:28;;;;;;;2.05;0.98;;;;;;;18.12;45.56;63869.09;5087497;28;20207;-77
2022/07/11 07:10:56;;;;;;;0.98;0.90;;;;;;;17.98;44.80;63857.06;5085245;28;20216;-78
2022/07/11 07:13:25;;;;;;;0.80;0.80;;;;;;;18.15;44.60;63874.78;5085039;28;20456;-76
2022/07/11 07:15:53;;;;;;;0.73;0.65;;;;;;;17.99;45.62;63857.59;5081232;28;20272;-76
2022/07/11 07:18:20;;;;;;;0.77;0.70;;;;;;;17.76;45.56;63836.22;5086454;28;20427;-76
2022/07/11 07:20:56;;;;;;;1.67;0.65;;;;;;;17.71;46.10;63828.44;5087449;28;20246;-74
2022/07/11 07:23:25;;;;;;;1.13;0.85;;;;;;;17.90;46.01;63848.75;5067990;28;20192;-76
2022/07/11 07:25:52;;;;;;;2.05;0.90;;;;;;;17.69;46.87;63826.38;5103135;28;20223;-76
2022/07/11 07:28:19;;;;;;;0.90;0.90;;;;;;;17.79;47.09;63839.34;5091910;28;20204;-75
2022/07/11 07:30:47;;;;;;;1.08;0.90;;;;;;;17.80;47.66;63837.81;5099689;28;20227;-77
2022/07/11 07:33:14;;;;;;;0.90;0.90;;;;;;;17.91;48.48;63849.28;5087043;28;20196;-77
2022/07/11 07:35:41;;;;;;;5.78;0.85;;;;;;;18.18;48.78;63872.78;5086042;28;20279;-77
2022/07/11 07:38:08;;;;;;;4.28;1.10;;;;;;;18.42;48.28;63902.41;5078516;28;20203;-77
2022/07/11 07:40:36;;;;;;;3.63;1.23;;;;;;;18.29;48.84;63889.38;5072912;28;20212;-76
2022/07/11 07:43:03;;;;;;;0.60;0.60;;;;;;;17.93;49.14;63853.94;5086788;28;20195;-77
2022/07/11 07:45:32;;;;;;;0.95;0.95;;;;;;;17.63;51.38;63822.69;5085502;28;20207;-76
2022/07/11 07:48:01;;;;;;;0.98;0.98;;;;;;;17.59;52.92;63821.63;5084805;28;20410;-77
2022/07/11 07:50:31;;;;;;;0.63;0.63;;;;;;;17.72;51.20;63830.00;5083779;28;20552;-76
2022/07/11 07:52:58;;;;;;;2.75;0.98;;;;;;;17.59;53.34;63813.38;5082956;28;20206;-77
2022/07/11 07:55:25;;;;;;;1.58;1.08;;;;;;;18.04;53.01;63862.81;5084169;28;20624;-75
2022/07/11 07:58:00;;;;;;;1.85;0.90;;;;;;;17.83;52.29;63840.94;5083429;28;20222;-76
2022/07/11 08:03:50;;;;;;;1.10;1.10;;;;;;;18.00;51.64;63859.16;5054577;28;20198;-76
2022/07/11 08:06:17;;;;;;;2.58;0.80;;;;;;;18.08;51.47;63864.94;5088907;28;20230;-77
2022/07/11 08:08:43;;;;;;;4.38;0.65;;;;;;;17.84;51.30;63839.41;5079241;28;20501;-78
2022/07/11 08:11:20;;;;;;;3.25;0.70;;;;;;;17.66;50.39;63823.75;5088988;28;20220;-77
2022/07/11 08:13:51;;;;;;;0.95;0.95;;;;;;;17.60;52.05;63817.50;5088724;28;20528;-77
2022/07/11 08:16:23;;;;;;;0.90;0.90;;;;;;;17.76;52.42;63836.75;5085906;28;20224;-76
2022/07/11 08:18:50;;;;;;;0.70;0.70;;;;;;;17.82;51.16;63837.84;5092164;28;20201;-76
2022/07/11 08:21:17;;;;;;;1.35;1.00;;;;;;;18.16;50.10;63873.25;5089632;28;20231;-78
2022/07/11 08:23:44;;;;;;;2.97;0.65;;;;;;;18.43;49.74;63903.97;5087597;28;20192;-78
2022/07/11 08:26:10;;;;;;;3.63;0.70;;;;;;;18.38;50.05;63903.38;5085735;28;20266;-77
2022/07/11 08:28:37;;;;;;;0.93;0.80;;;;;;;17.87;48.99;63845.63;5085406;28;20204;-76
2022/07/11 08:31:06;;;;;;;1.20;1.05;;;;;;;18.11;50.44;63872.69;5086977;28;20222;-77
2022/07/11 08:33:33;;;;;;;0.85;0.85;;;;;;;18.07;50.21;63866.47;5085738;28;20429;-77
2022/07/11 08:36:00;;;;;;;3.03;0.70;;;;;;;17.79;48.78;63837.28;5084399;28;20216;-76
2022/07/11 08:38:27;;;;;;;2.65;1.30;;;;;;;17.86;49.72;63844.06;5085393;28;20253;-77
2022/07/11 08:40:54;;;;;;;1.33;0.80;;;;;;;18.00;50.70;63856.59;5086924;28;20592;-76
2022/07/11 08:43:27;;;;;;;2.47;0.65;;;;;;;18.00;49.17;63863.81;5088832;28;20203;-77
2022/07/11 08:45:56;;;;;;;0.60;0.60;;;;;;;18.07;47.69;63869.03;5087878;28;20316;-78
2022/07/11 08:48:25;;;;;;;0.85;0.85;;;;;;;18.21;49.07;63883.63;5093684;28;20408;-76
2022/07/11 08:50:52;;;;;;;0.70;0.70;;;;;;;17.86;49.05;63844.06;5090076;28;20228;-77
2022/07/11 08:53:20;;;;;;;1.13;0.98;;;;;;;18.03;47.82;63864.88;5076649;28;20188;-77
2022/07/11 08:55:47;;;;;;;0.60;0.60;;;;;;;17.93;49.40;63848.78;5092353;28;20430;-79
2022/07/11 08:58:15;;;;;;;2.70;0.95;;;;;;;18.05;49.04;63864.38;5086768;28;20196;-77
2022/07/11 09:00:44;;;;;;;9.05;0.90;;;;;;;18.14;48.80;63878.91;5085502;28;20218;-77
2022/07/11 09:03:15;;;;;;;0.60;0.60;;;;;;;18.07;48.86;63868.50;5081970;28;20231;-77
2022/07/11 09:05:44;;;;;;;3.60;1.02;;;;;;;18.37;48.74;63897.19;5090975;28;20223;-78
2022/07/11 09:08:11;;;;;;;1.70;0.88;;;;;;;18.43;46.79;63906.03;5089269;28;20192;-76
2022/07/11 09:10:40;;;;;;;1.33;0.90;;;;;;;18.41;46.19;63901.38;5085668;28;20410;-77
2022/07/11 09:13:10;;;;;;;0.90;0.90;;;;;;;18.62;46.90;63920.16;5086240;28;20263;-76
2022/07/11 09:15:40;;;;;;;4.30;0.60;;;;;;;17.85;47.23;63840.97;5086752;28;20208;-74
2022/07/11 09:18:30;;;;;;;1.55;0.80;;;;;;;17.79;47.17;63837.28;5087310;28;20230;-77
2022/07/11 09:26:32;;;;;;;0.60;0.60;;;;;;;18.16;46.65;63875.84;5088195;28;20281;-77
2022/07/11 09:29:03;;;;;;;1.38;0.90;;;;;;;18.16;46.76;63875.31;5088210;28;20219;-77
2022/07/11 09:31:32;;;;;;;2.30;0.80;;;;;;;18.40;46.65;63903.44;5085406;28;20424;-75
2022/07/11 09:34:03;;;;;;;1.45;0.50;;;;;;;18.14;47.28;63873.75;5088041;28;20196;-77
2022/07/11 09:36:41;;;;;;;0.93;0.70;;;;;;;18.31;46.25;63894.03;5086869;28;20220;-77
2022/07/11 09:39:10;;;;;;;1.08;0.82;;;;;;;18.30;46.91;63889.91;5086928;28;20259;-77
2022/07/11 09:41:38;;;;;;;2.15;0.70;;;;;;;18.37;46.84;63894.63;5085056;28;20269;-76
2022/07/11 09:44:10;;;;;;;1.38;0.70;;;;;;;18.65;46.62;63933.59;5082622;28;20230;-76
2022/07/11 09:46:37;;;;;;;0.77;0.77;;;;;;;18.37;46.97;63902.88;5076948;28;20216;-77
2022/07/11 09:49:04;;;;;;;1.30;0.75;;;;;;;18.53;46.71;63913.91;5080430;28;20196;-77
2022/07/11 09:51:33;;;;;;;1.55;0.73;;;;;;;18.64;45.81;63930.00;5052905;28;20402;-77
2022/07/11 09:54:04;;;;;;;0.95;0.90;;;;;;;18.65;45.86;63931.56;5081529;28;20207;-76
2022/07/11 09:56:36;;;;;;;0.65;0.55;;;;;;;18.25;46.21;63887.28;5085536;28;20238;-76
2022/07/11 09:59:05;;;;;;;0.50;0.50;;;;;;;18.44;45.96;63909.66;5081462;28;20192;-76
2022/07/11 10:01:33;;;;;;;0.70;0.70;;;;;;;18.48;45.86;63911.25;5085461;28;20232;-76
2022/07/11 10:03:59;;;;;;;2.30;0.70;;;;;;;18.48;45.68;63908.69;5084707;28;20200;-76
2022/07/11 10:06:27;;;;;;;6.93;0.65;;;;;;;18.62;45.36;63920.16;5066653;28;20227;-75
2022/07/11 10:08:55;;;;;;;1.00;0.70;;;;;;;18.36;45.96;63899.25;5075062;28;20220;-76
2022/07/11 10:11:23;;;;;;;0.77;0.77;;;;;;;18.91;46.01;63955.56;5075439;28;20216;-77
2022/07/11 10:13:51;;;;;;;1.27;0.82;;;;;;;19.31;44.94;63997.78;5083196;28;20263;-77
2022/07/11 10:16:33;;;;;;;1.35;0.65;;;;;;;19.38;43.22;64004.56;5077379;28;20224;-77
2022/07/11 10:19:23;;;;;;;0.60;0.60;;;;;;;19.42;44.85;64006.16;5082299;28;20184;-77
2022/07/11 10:22:03;;;;;;;2.15;0.82;;;;;;;19.54;44.86;64016.09;5085770;28;20259;-77
2022/07/11 10:24:41;;;;;;;0.70;0.70;;;;;;;19.63;44.34;64030.13;5085796;28;20541;-78
2022/07/11 10:27:17;;;;;;;2.08;0.75;;;;;;;19.64;43.94;64028.59;5079486;28;20235;-77
2022/07/11 10:29:49;;;;;;;0.95;0.82;;;;;;;18.99;44.99;63961.31;5083440;28;20200;-76
2022/07/11 10:32:17;;;;;;;3.60;0.70;;;;;;;18.54;45.70;63914.41;5084024;28;20215;-77
2022/07/11 10:34:44;;;;;;;2.50;0.70;;;;;;;18.71;45.21;63932.63;5085386;28;20231;-77
2022/07/11 10:37:12;;;;;;;0.60;0.60;;;;;;;18.79;44.62;63941.00;5083409;28;20224;-76
2022/07/11 10:39:46;;;;;;;2.88;0.90;;;;;;;19.11;42.92;63978.97;5086549;28;20250;-77
2022/07/11 10:42:21;;;;;;;5.07;0.95;;;;;;;19.31;43.67;63997.78;5083122;28;20231;-77
2022/07/11 10:44:49;;;;;;;0.50;0.50;;;;;;;19.05;43.51;63965.00;5083923;28;20255;-77
2022/07/11 10:47:36;;;;;;;1.23;1.13;;;;;;;19.13;42.71;63976.44;5085175;28;20218;-77
2022/07/11 10:50:12;;;;;;;1.75;0.80;;;;;;;19.42;41.85;64008.75;5082679;28;20263;-77
2022/07/11 10:52:41;;;;;;;0.80;0.80;;;;;;;19.58;41.78;64024.91;5087640;28;20204;-78
2022/07/11 10:55:29;;;;;;;0.90;0.90;;;;;;;19.66;40.96;64028.59;5086624;28;20197;-76
2022/07/11 10:58:06;;;;;;;0.60;0.60;;;;;;;19.46;42.84;64010.88;5081149;28;20218;-77
2022/07/11 11:00:33;;;;;;;0.45;0.45;;;;;;;19.57;42.13;64024.38;5088864;28;20226;-77
2022/07/11 11:03:02;;;;;;;0.80;0.80;;;;;;;19.08;43.52;63970.69;5085279;28;20224;-77
2022/07/11 11:05:43;;;;;;;0.82;0.70;;;;;;;19.04;43.84;63971.69;5081167;28;20242;-77
2022/07/11 11:08:42;;;;;;;1.13;0.90;;;;;;;19.00;43.63;63964.94;5087226;28;20446;-77
2022/07/11 11:11:37;;;;;;;2.75;0.80;;;;;;;19.23;42.89;63989.44;5091222;28;20243;-78
2022/07/11 11:14:27;;;;;;;1.52;0.88;;;;;;;18.88;43.69;63949.84;5086614;28;20206;-77
2022/07/11 11:16:55;;;;;;;0.85;0.85;;;;;;;19.23;42.50;63988.91;5089737;28;20283;-77
2022/07/11 11:19:55;;;;;;;0.60;0.60;;;;;;;19.23;42.27;63988.91;5090139;28;20200;-76
2022/07/11 11:22:25;;;;;;;0.70;0.70;;;;;;;19.37;41.94;64000.94;5089892;28;20232;-77
2022/07/11 11:24:54;;;;;;;3.53;0.82;;;;;;;19.74;40.91;64036.44;5088113;28;20188;-78
2022/07/11 11:27:22;;;;;;;0.63;0.63;;;;;;;19.35;42.05;63996.81;5077802;28;20277;-76
2022/07/11 11:29:55;;;;;;;1.85;1.00;;;;;;;19.51;41.71;64013.50;5069665;28;20347;-76
2022/07/11 11:32:23;;;;;;;1.30;0.80;;;;;;;19.18;42.35;63981.66;5075032;28;20243;-76
2022/07/11 11:34:50;;;;;;;0.75;0.75;;;;;;;19.33;42.55;63996.78;5090298;28;20231;-78
2022/07/11 11:37:22;;;;;;;0.75;0.75;;;;;;;19.33;42.03;63999.88;5087062;28;20262;-76
2022/07/11 11:39:49;;;;;;;0.85;0.80;;;;;;;19.30;42.49;63996.22;5088421;28;20232;-77
2022/07/11 11:42:17;;;;;;;0.77;0.77;;;;;;;19.46;41.97;64012.91;5090918;28;20276;-77
2022/07/11 11:45:00;;;;;;;3.22;0.70;;;;;;;19.55;42.96;64024.91;5089953;28;20216;-77
2022/07/11 11:47:31;;;;;;;1.95;0.70;;;;;;;19.75;41.89;64040.59;5095423;28;20487;-76
2022/07/11 11:49:58;;;;;;;0.80;0.80;;;;;;;19.51;42.21;64021.25;5094948;28;20291;-77